createdAt,value
2019-05-04T00:00:13.006Z,16.53
2019-05-04T00:02:44.477Z,14.13
2019-05-04T00:05:35.413Z,11.37
2019-05-04T00:08:05.469Z,10.27
2019-05-04T00:10:34.911Z,11.60
2019-05-04T00:13:04.950Z,10.90
2019-05-04T00:15:35.483Z,12.00
2019-05-04T00:18:05.013Z,10.27
2019-05-04T00:20:34.871Z,10.90
2019-05-04T00:23:05.552Z,12.80
2019-05-04T00:25:35.159Z,11.60
2019-05-04T00:28:05.523Z,12.93
2019-05-04T00:30:35.170Z,14.20
2019-05-04T00:33:19.872Z,13.70
2019-05-04T00:36:08.127Z,9.50
2019-05-04T00:38:37.388Z,7.47
2019-05-04T00:41:06.683Z,7.73
2019-05-04T00:43:35.957Z,6.53
2019-05-04T00:46:05.244Z,6.47
2019-05-04T00:48:34.755Z,5.50
2019-05-04T00:51:05.578Z,5.10
2019-05-04T00:53:35.469Z,3.73
2019-05-04T00:56:17.051Z,2.50
2019-05-04T00:58:52.136Z,3.07
2019-05-04T01:01:40.367Z,2.07
2019-05-04T01:04:09.657Z,1.90
2019-05-04T01:06:39.353Z,1.77
2019-05-04T01:09:08.654Z,2.40
2019-05-04T01:11:37.943Z,2.20
2019-05-04T01:14:07.186Z,1.90
2019-05-04T01:16:36.509Z,2.03
2019-05-04T01:19:05.776Z,2.70
2019-05-04T01:21:35.073Z,3.83
2019-05-04T01:24:04.543Z,7.10
2019-05-04T01:26:34.599Z,11.03
2019-05-04T01:29:04.595Z,10.47
2019-05-04T01:31:34.551Z,8.67
2019-05-04T01:34:15.172Z,7.03
2019-05-04T01:36:53.011Z,7.87
2019-05-04T01:39:50.307Z,2.40
2019-05-04T01:42:19.608Z,2.10
2019-05-04T01:44:48.887Z,2.30
2019-05-04T01:47:18.219Z,1.90
2019-05-04T01:49:47.770Z,3.17
2019-05-04T01:52:17.774Z,3.50
2019-05-04T01:54:47.157Z,4.10
2019-05-04T01:57:35.466Z,4.30
2019-05-04T02:00:06.361Z,4.77
2019-05-04T02:02:35.712Z,3.70
2019-05-04T02:05:05.814Z,2.73
2019-05-04T02:07:44.630Z,3.00
2019-05-04T02:10:07.098Z,3.93
2019-05-04T02:12:36.392Z,3.20
2019-05-04T02:15:06.387Z,2.57
2019-05-04T02:17:35.673Z,2.67
2019-05-04T02:20:05.464Z,3.90
2019-05-04T02:22:38.871Z,4.00
2019-05-04T02:25:16.425Z,3.17
2019-05-04T02:28:05.647Z,4.30
2019-05-04T02:30:45.775Z,3.90
2019-05-04T02:33:15.383Z,4.23
2019-05-04T02:35:45.962Z,4.10
2019-05-04T02:38:18.614Z,3.07
2019-05-04T02:41:15.517Z,2.87
2019-05-04T02:43:46.005Z,3.60
2019-05-04T02:46:15.709Z,2.90
2019-05-04T02:48:46.640Z,3.20
2019-05-04T02:51:17.072Z,2.33
2019-05-04T02:53:46.914Z,2.43
2019-05-04T02:56:16.595Z,2.20
2019-05-04T02:58:46.168Z,2.00
2019-05-04T03:01:16.754Z,3.03
2019-05-04T03:03:46.202Z,2.50
2019-05-04T03:06:15.788Z,2.97
2019-05-04T03:08:46.355Z,2.63
2019-05-04T03:11:16.456Z,2.33
2019-05-04T03:13:46.591Z,2.83
2019-05-04T03:16:16.340Z,2.93
2019-05-04T03:18:47.937Z,2.70
2019-05-04T03:21:26.499Z,1.97
2019-05-04T03:23:57.564Z,2.67
2019-05-04T03:26:26.845Z,2.10
2019-05-04T03:28:56.086Z,2.60
2019-05-04T03:31:27.789Z,2.80
2019-05-04T03:33:58.022Z,3.37
2019-05-04T03:36:32.627Z,3.47
2019-05-04T03:38:58.983Z,3.63
2019-05-04T03:41:28.449Z,3.67
2019-05-04T03:43:57.759Z,3.97
2019-05-04T03:46:52.029Z,5.67
2019-05-04T03:49:45.212Z,3.90
2019-05-04T03:52:16.119Z,4.60
2019-05-04T03:54:45.740Z,4.60
2019-05-04T03:57:16.093Z,5.10
2019-05-04T03:59:46.281Z,4.90
2019-05-04T04:02:16.076Z,5.07
2019-05-04T04:04:45.637Z,8.30
2019-05-04T04:07:15.511Z,8.10
2019-05-04T04:09:45.931Z,9.83
2019-05-04T04:12:16.261Z,8.77
2019-05-04T04:14:45.556Z,8.63
2019-05-04T04:17:28.279Z,9.73
2019-05-04T04:19:57.569Z,12.50
2019-05-04T04:22:27.643Z,11.33
2019-05-04T04:24:57.022Z,12.20
2019-05-04T04:27:37.086Z,10.50
2019-05-04T04:30:07.079Z,11.50
2019-05-04T04:32:36.646Z,11.57
2019-05-04T04:35:07.149Z,11.40
2019-05-04T04:37:36.482Z,10.47
2019-05-04T04:40:06.667Z,9.50
2019-05-04T04:42:36.517Z,10.70
2019-05-04T04:45:07.721Z,8.80
2019-05-04T04:47:37.093Z,7.60
2019-05-04T04:50:07.638Z,10.63
2019-05-04T04:52:37.219Z,9.27
2019-05-04T04:55:16.644Z,10.47
2019-05-04T04:57:52.514Z,9.30
2019-05-04T05:00:45.305Z,9.33
2019-05-04T05:03:15.596Z,9.50
2019-05-04T05:05:46.455Z,10.43
2019-05-04T05:08:16.869Z,9.40
2019-05-04T05:10:46.437Z,9.40
2019-05-04T05:13:16.116Z,8.00
2019-05-04T05:15:45.838Z,9.83
2019-05-04T05:18:15.576Z,9.17
2019-05-04T05:21:08.104Z,8.30
2019-05-04T05:23:37.844Z,6.10
2019-05-04T05:26:07.602Z,5.57
2019-05-04T05:28:36.872Z,5.87
2019-05-04T05:31:15.020Z,3.90
2019-05-04T05:34:09.440Z,4.33
2019-05-04T05:36:40.469Z,4.47
2019-05-04T05:39:09.732Z,3.67
2019-05-04T05:41:39.002Z,3.10
2019-05-04T05:44:08.666Z,2.97
2019-05-04T05:46:54.515Z,3.70
2019-05-04T05:49:35.192Z,3.00
2019-05-04T05:52:16.708Z,3.33
2019-05-04T05:55:23.011Z,2.83
2019-05-04T05:58:06.589Z,2.87
2019-05-04T06:00:54.933Z,3.13
2019-05-04T06:03:39.031Z,3.40
2019-05-04T06:06:11.493Z,3.60
2019-05-04T06:08:44.731Z,2.70
2019-05-04T06:11:14.281Z,3.10
2019-05-04T06:13:55.025Z,2.60
2019-05-04T06:16:44.609Z,2.90
2019-05-04T06:19:22.543Z,2.50
2019-05-04T06:22:09.713Z,3.10
2019-05-04T06:24:50.063Z,3.00
2019-05-04T06:27:48.827Z,2.73
2019-05-04T06:30:35.838Z,2.70
2019-05-04T06:33:12.254Z,3.03
2019-05-04T06:35:54.695Z,3.17
2019-05-04T06:38:41.067Z,3.60
2019-05-04T06:41:14.945Z,3.77
2019-05-04T06:44:02.282Z,3.60
2019-05-04T06:46:35.722Z,2.70
2019-05-04T06:49:07.757Z,8.20
2019-05-04T06:51:44.935Z,4.60
2019-05-04T06:54:32.074Z,4.67
2019-05-04T06:57:40.102Z,3.23
2019-05-04T06:59:57.619Z,3.10
2019-05-04T07:02:30.391Z,3.30
2019-05-04T07:04:58.052Z,3.30
2019-05-04T07:07:27.347Z,3.10
2019-05-04T07:10:00.075Z,3.93
2019-05-04T07:12:29.996Z,4.07
2019-05-04T07:14:58.726Z,9.37
2019-05-04T07:17:28.000Z,18.70
2019-05-04T07:20:00.305Z,28.60
2019-05-04T07:22:36.019Z,16.13
2019-05-04T07:24:59.367Z,74.77
2019-05-04T07:27:28.653Z,44.43
2019-05-04T07:30:01.836Z,20.23
2019-05-04T07:32:29.233Z,9.03
2019-05-04T07:35:00.090Z,14.30
2019-05-04T07:37:59.311Z,13.20
2019-05-04T07:40:36.305Z,12.57
2019-05-04T07:43:07.556Z,11.10
2019-05-04T07:45:36.960Z,10.40
2019-05-04T07:48:09.064Z,13.60
2019-05-04T07:50:37.889Z,12.20
2019-05-04T07:53:12.525Z,12.07
2019-05-04T07:55:38.274Z,11.73
2019-05-04T07:58:09.105Z,11.73
2019-05-04T08:00:40.300Z,12.30
2019-05-04T08:03:09.615Z,13.77
2019-05-04T08:05:44.166Z,12.30
2019-05-04T08:08:10.610Z,11.43
2019-05-04T08:10:41.639Z,8.90
2019-05-04T08:13:10.967Z,9.97
2019-05-04T08:15:40.240Z,8.20
2019-05-04T08:18:11.279Z,10.03
2019-05-04T08:20:41.223Z,8.93
2019-05-04T08:23:10.612Z,6.60
2019-05-04T08:25:41.061Z,6.57
2019-05-04T08:28:10.997Z,6.80
2019-05-04T08:30:46.023Z,7.43
2019-05-04T08:33:11.288Z,7.33
2019-05-04T08:35:41.015Z,7.13
2019-05-04T08:38:11.533Z,6.47
2019-05-04T08:40:41.015Z,6.97
2019-05-04T08:43:12.348Z,6.23
2019-05-04T08:45:44.487Z,5.80
2019-05-04T08:48:14.991Z,5.23
2019-05-04T08:51:04.497Z,5.30
2019-05-04T08:53:39.602Z,5.80
2019-05-04T08:56:17.954Z,6.20
2019-05-04T08:59:04.676Z,5.33
2019-05-04T09:01:37.331Z,3.47
2019-05-04T09:04:22.031Z,5.40
2019-05-04T09:06:38.532Z,4.17
2019-05-04T09:09:10.550Z,4.37
2019-05-04T09:11:39.940Z,3.83
2019-05-04T09:14:09.225Z,4.97
2019-05-04T09:16:38.569Z,4.37
2019-05-04T09:19:09.854Z,4.10
2019-05-04T09:21:39.344Z,4.23
2019-05-04T09:24:09.303Z,3.30
2019-05-04T09:26:42.022Z,3.60
2019-05-04T09:29:09.816Z,2.97
2019-05-04T09:31:39.830Z,3.60
2019-05-04T09:34:09.196Z,4.53
2019-05-04T09:36:39.463Z,5.03
2019-05-04T09:39:11.654Z,3.43
2019-05-04T09:41:47.803Z,3.70
2019-05-04T09:44:17.200Z,3.97
2019-05-04T09:46:49.457Z,4.20
2019-05-04T09:49:19.870Z,2.63
2019-05-04T09:52:05.899Z,2.60
2019-05-04T09:54:34.849Z,1.83
2019-05-04T09:57:05.083Z,1.93
2019-05-04T09:59:46.696Z,3.30
2019-05-04T10:02:05.993Z,2.03
2019-05-04T10:04:35.551Z,2.10
2019-05-04T10:07:41.746Z,3.27
2019-05-04T10:10:11.173Z,2.30
2019-05-04T10:13:02.492Z,2.60
2019-05-04T10:15:49.571Z,2.17
2019-05-04T10:18:18.861Z,2.07
2019-05-04T10:20:48.872Z,2.17
2019-05-04T10:23:18.347Z,2.10
2019-05-04T10:25:48.266Z,1.80
2019-05-04T10:28:17.582Z,2.33
2019-05-04T10:30:46.869Z,1.73
2019-05-04T10:33:16.193Z,1.40
2019-05-04T10:35:45.545Z,1.60
2019-05-04T10:38:14.904Z,2.80
2019-05-04T10:40:44.209Z,1.40
2019-05-04T10:43:15.105Z,1.23
2019-05-04T10:45:44.580Z,1.70
2019-05-04T10:48:15.020Z,2.10
2019-05-04T10:50:45.377Z,1.60
2019-05-04T10:53:14.797Z,2.30
2019-05-04T10:55:44.628Z,1.10
2019-05-04T10:58:15.056Z,2.20
2019-05-04T11:00:44.470Z,2.43
2019-05-04T11:03:14.622Z,2.27
2019-05-04T11:05:45.431Z,3.73
2019-05-04T11:08:14.865Z,1.60
2019-05-04T11:10:44.983Z,1.87
2019-05-04T11:13:19.731Z,2.33
2019-05-04T11:15:45.430Z,1.43
2019-05-04T11:18:15.084Z,2.00
2019-05-04T11:20:45.260Z,1.23
2019-05-04T11:23:14.960Z,1.97
2019-05-04T11:25:58.145Z,1.60
2019-05-04T11:28:30.151Z,1.17
2019-05-04T11:30:59.424Z,1.20
2019-05-04T11:33:28.723Z,0.83
2019-05-04T11:35:58.083Z,1.20
2019-05-04T11:38:27.393Z,1.13
2019-05-04T11:40:56.683Z,1.70
2019-05-04T11:43:29.849Z,1.03
2019-05-04T11:45:57.291Z,0.80
2019-05-04T11:48:26.609Z,0.83
2019-05-04T11:50:55.908Z,1.40
2019-05-04T11:53:25.253Z,1.00
2019-05-04T11:55:54.736Z,1.00
2019-05-04T11:58:24.583Z,1.13
2019-05-04T12:00:54.426Z,1.67
2019-05-04T12:03:25.414Z,1.00
2019-05-04T12:05:59.149Z,1.30
2019-05-04T12:08:59.312Z,1.20
2019-05-04T12:11:28.681Z,2.17
2019-05-04T12:13:58.009Z,1.83
2019-05-04T12:16:27.292Z,1.63
2019-05-04T12:18:56.603Z,2.20
2019-05-04T12:21:25.889Z,1.67
2019-05-04T12:23:55.383Z,1.77
2019-05-04T12:26:25.356Z,1.60
2019-05-04T12:28:54.866Z,1.50
2019-05-04T12:31:24.763Z,1.40
2019-05-04T12:33:54.237Z,1.50
2019-05-04T12:36:23.567Z,1.30
2019-05-04T12:38:53.222Z,1.63
2019-05-04T12:41:24.463Z,1.50
2019-05-04T12:44:00.088Z,1.83
2019-05-04T12:46:25.168Z,2.20
2019-05-04T12:48:54.615Z,1.90
2019-05-04T12:51:24.357Z,1.60
2019-05-04T12:53:54.940Z,1.07
2019-05-04T12:56:24.807Z,1.47
2019-05-04T12:58:55.368Z,1.43
2019-05-04T13:01:24.865Z,1.63
2019-05-04T13:03:54.695Z,1.80
2019-05-04T13:06:24.560Z,1.30
2019-05-04T13:08:54.320Z,1.63
2019-05-04T13:11:25.022Z,2.13
2019-05-04T13:13:54.579Z,1.57
2019-05-04T13:16:25.013Z,2.47
2019-05-04T13:19:00.376Z,2.17
2019-05-04T13:21:30.170Z,1.93
2019-05-04T13:23:59.500Z,1.60
2019-05-04T13:26:28.854Z,1.87
2019-05-04T13:28:58.204Z,3.00
2019-05-04T13:31:27.597Z,1.83
2019-05-04T13:33:56.978Z,1.90
2019-05-04T13:36:26.363Z,1.80
2019-05-04T13:38:56.333Z,1.70
2019-05-04T13:41:26.027Z,1.40
2019-05-04T13:43:55.850Z,2.30
2019-05-04T13:46:25.680Z,1.70
2019-05-04T13:48:56.096Z,1.97
2019-05-04T13:51:26.158Z,1.90
2019-05-04T13:53:57.749Z,2.40
2019-05-04T13:56:42.211Z,2.03
2019-05-04T13:59:16.004Z,1.50
2019-05-04T14:02:07.335Z,1.40
2019-05-04T14:04:55.648Z,1.80
2019-05-04T14:07:24.950Z,2.10
2019-05-04T14:09:54.514Z,1.60
2019-05-04T14:12:24.579Z,1.77
2019-05-04T14:14:54.953Z,1.50
2019-05-04T14:17:24.736Z,1.40
2019-05-04T14:19:54.830Z,1.60
2019-05-04T14:22:25.629Z,1.70
2019-05-04T14:24:55.515Z,1.40
2019-05-04T14:27:25.122Z,1.77
2019-05-04T14:29:54.791Z,1.57
2019-05-04T14:32:24.944Z,1.70
2019-05-04T14:34:54.879Z,1.57
2019-05-04T14:37:24.640Z,1.90
2019-05-04T14:39:56.501Z,2.53
2019-05-04T14:42:26.435Z,1.80
2019-05-04T14:45:16.218Z,2.33
2019-05-04T14:47:50.958Z,1.83
2019-05-04T14:50:20.531Z,1.73
2019-05-04T14:52:49.935Z,1.80
2019-05-04T14:55:19.375Z,1.63
2019-05-04T14:57:48.777Z,1.50
2019-05-04T15:00:18.510Z,2.00
2019-05-04T15:02:48.100Z,1.80
2019-05-04T15:05:17.599Z,1.80
2019-05-04T15:07:49.050Z,1.80
2019-05-04T15:10:18.157Z,2.70
2019-05-04T15:12:47.500Z,2.80
2019-05-04T15:15:16.935Z,2.20
2019-05-04T15:17:46.263Z,2.37
2019-05-04T15:20:30.622Z,2.80
2019-05-04T15:22:59.979Z,2.10
2019-05-04T15:25:29.345Z,2.10
2019-05-04T15:27:59.557Z,2.53
2019-05-04T15:30:28.906Z,2.17
2019-05-04T15:32:58.272Z,2.30
2019-05-04T15:35:28.006Z,2.23
2019-05-04T15:37:57.343Z,3.07
2019-05-04T15:40:26.685Z,2.37
2019-05-04T15:42:55.989Z,2.87
2019-05-04T15:45:30.299Z,2.33
2019-05-04T15:48:06.280Z,3.00
2019-05-04T15:50:41.497Z,2.70
2019-05-04T15:53:25.238Z,3.30
2019-05-04T15:56:15.623Z,2.27
2019-05-04T15:58:49.882Z,1.93
2019-05-04T16:01:19.796Z,2.43
2019-05-04T16:03:49.689Z,4.10
2019-05-04T16:06:19.069Z,3.50
2019-05-04T16:08:48.757Z,3.00
2019-05-04T16:11:18.090Z,3.10
2019-05-04T16:13:47.430Z,3.30
2019-05-04T16:16:17.037Z,2.17
2019-05-04T16:18:46.400Z,1.70
2019-05-04T16:21:15.956Z,1.70
2019-05-04T16:23:45.251Z,2.67
2019-05-04T16:26:16.902Z,1.60
2019-05-04T16:28:46.183Z,2.07
2019-05-04T16:31:17.156Z,2.43
2019-05-04T16:33:46.625Z,1.70
2019-05-04T16:36:15.932Z,3.80
2019-05-04T16:38:45.236Z,2.40
2019-05-04T16:41:14.582Z,2.37
2019-05-04T16:43:45.174Z,2.80
2019-05-04T16:46:14.652Z,2.07
2019-05-04T16:48:45.269Z,2.10
2019-05-04T16:51:34.795Z,2.20
2019-05-04T16:54:05.268Z,7.47
2019-05-04T16:56:34.692Z,3.90
2019-05-04T16:59:04.085Z,4.73
2019-05-04T17:01:54.922Z,2.60
2019-05-04T17:04:29.488Z,2.00
2019-05-04T17:06:58.760Z,1.93
2019-05-04T17:09:28.157Z,2.80
2019-05-04T17:11:58.425Z,3.30
2019-05-04T17:14:27.777Z,2.10
2019-05-04T17:16:57.127Z,1.93
2019-05-04T17:19:28.699Z,1.97
2019-05-04T17:22:07.518Z,1.93
2019-05-04T17:25:06.040Z,2.33
2019-05-04T17:27:57.768Z,2.90
2019-05-04T17:30:39.766Z,2.50
2019-05-04T17:33:09.427Z,2.40
2019-05-04T17:35:39.117Z,2.50
2019-05-04T17:38:08.709Z,2.00
2019-05-04T17:40:45.253Z,2.53
2019-05-04T17:43:39.669Z,2.63
2019-05-04T17:46:08.971Z,2.70
2019-05-04T17:48:38.315Z,2.40
2019-05-04T17:51:10.604Z,3.57
2019-05-04T17:53:41.770Z,2.30
2019-05-04T17:56:11.344Z,2.70
2019-05-04T17:58:40.683Z,2.90
2019-05-04T18:01:35.528Z,2.90
2019-05-04T18:04:07.277Z,2.40
2019-05-04T18:06:36.574Z,4.10
2019-05-04T18:09:08.377Z,2.47
2019-05-04T18:11:44.663Z,2.40
2019-05-04T18:14:31.175Z,2.07
2019-05-04T18:17:03.391Z,2.37
2019-05-04T18:19:32.706Z,3.23
2019-05-04T18:22:02.023Z,2.80
2019-05-04T18:24:31.317Z,2.67
2019-05-04T18:27:04.397Z,2.90
2019-05-04T18:29:35.321Z,2.60
2019-05-04T18:32:04.802Z,3.30
2019-05-04T18:34:35.066Z,3.10
2019-05-04T18:37:05.540Z,3.17
2019-05-04T18:39:35.390Z,2.90
2019-05-04T18:42:06.353Z,2.83
2019-05-04T18:44:45.762Z,2.90
2019-05-04T18:47:27.112Z,3.17
2019-05-04T18:49:55.853Z,2.90
2019-05-04T18:52:25.203Z,3.17
2019-05-04T18:54:54.559Z,2.23
2019-05-04T18:57:25.013Z,2.80
2019-05-04T18:59:54.960Z,2.70
2019-05-04T19:02:24.561Z,2.30
2019-05-04T19:04:54.315Z,3.47
2019-05-04T19:07:41.540Z,2.73
2019-05-04T19:10:12.057Z,3.57
2019-05-04T19:12:41.510Z,3.00
2019-05-04T19:15:11.674Z,3.07
2019-05-04T19:17:41.252Z,3.00
2019-05-04T19:20:10.911Z,3.20
2019-05-04T19:22:40.571Z,1.90
2019-05-04T19:25:19.646Z,2.37
2019-05-04T19:27:48.912Z,1.63
2019-05-04T19:30:19.041Z,1.60
2019-05-04T19:32:48.438Z,1.50
2019-05-04T19:35:17.784Z,2.07
2019-05-04T19:37:47.080Z,1.40
2019-05-04T19:40:18.264Z,1.70
2019-05-04T19:42:59.710Z,1.33
2019-05-04T19:45:47.953Z,1.70
2019-05-04T19:48:21.044Z,1.80
2019-05-04T19:50:50.316Z,2.10
2019-05-04T19:53:20.061Z,1.80
2019-05-04T19:55:49.425Z,2.33
2019-05-04T19:58:19.377Z,1.80
2019-05-04T20:00:49.036Z,1.60
2019-05-04T20:03:18.476Z,2.10
2019-05-04T20:05:49.103Z,1.90
2019-05-04T20:08:25.302Z,1.80
2019-05-04T20:11:05.752Z,1.77
2019-05-04T20:13:35.596Z,1.63
2019-05-04T20:16:05.486Z,1.70
2019-05-04T20:18:35.049Z,1.70
2019-05-04T20:21:05.130Z,1.80
2019-05-04T20:23:34.731Z,1.37
2019-05-04T20:26:06.430Z,2.40
2019-05-04T20:28:35.032Z,1.30
2019-05-04T20:31:04.723Z,1.57
2019-05-04T20:33:34.737Z,1.90
2019-05-04T20:36:05.641Z,2.00
2019-05-04T20:38:35.575Z,1.50
2019-05-04T20:41:05.515Z,2.20
2019-05-04T20:43:35.229Z,2.73
2019-05-04T20:46:15.634Z,1.67
2019-05-04T20:48:50.411Z,1.80
2019-05-04T20:51:20.000Z,1.60
2019-05-04T20:53:58.630Z,1.60
2019-05-04T20:56:27.900Z,1.70
2019-05-04T20:58:57.205Z,1.43
2019-05-04T21:01:34.968Z,1.77
2019-05-04T21:04:26.868Z,1.83
2019-05-04T21:06:59.406Z,1.63
2019-05-04T21:09:29.245Z,1.63
2019-05-04T21:11:58.941Z,2.10
2019-05-04T21:14:28.236Z,2.53
2019-05-04T21:17:16.475Z,2.20
2019-05-04T21:20:09.076Z,2.10
2019-05-04T21:22:38.833Z,3.13
2019-05-04T21:25:09.193Z,3.40
2019-05-04T21:27:38.860Z,2.70
2019-05-04T21:30:08.678Z,3.30
2019-05-04T21:32:38.368Z,2.83
2019-05-04T21:35:07.818Z,3.10
2019-05-04T21:37:37.158Z,3.17
2019-05-04T21:40:10.454Z,2.83
2019-05-04T21:42:39.442Z,2.17
2019-05-04T21:45:17.490Z,2.57
2019-05-04T21:48:15.177Z,2.80
2019-05-04T21:50:37.805Z,2.07
2019-05-04T21:53:07.122Z,3.00
2019-05-04T21:55:36.783Z,3.50
2019-05-04T21:58:06.104Z,6.43
2019-05-04T22:01:00.928Z,8.00
2019-05-04T22:03:48.706Z,8.37
2019-05-04T22:06:18.398Z,10.33
2019-05-04T22:08:47.664Z,8.03
2019-05-04T22:11:16.992Z,6.00
2019-05-04T22:13:46.305Z,5.50
2019-05-04T22:16:15.603Z,4.60
2019-05-04T22:18:45.458Z,4.20
2019-05-04T22:21:15.199Z,4.70
2019-05-04T22:23:44.735Z,5.07
2019-05-04T22:26:15.193Z,4.07
2019-05-04T22:28:46.711Z,3.40
2019-05-04T22:31:15.702Z,4.00
2019-05-04T22:33:45.680Z,3.33
2019-05-04T22:36:34.204Z,3.67
2019-05-04T22:39:06.425Z,4.13
2019-05-04T22:41:36.022Z,3.30
2019-05-04T22:44:06.582Z,3.17
2019-05-04T22:46:35.977Z,3.27
2019-05-04T22:49:05.377Z,3.57
2019-05-04T22:51:34.688Z,2.87
2019-05-04T22:54:22.012Z,3.70
2019-05-04T22:56:51.370Z,2.57
2019-05-04T22:59:25.086Z,2.00
2019-05-04T23:02:04.672Z,2.90
2019-05-04T23:04:35.924Z,2.83
2019-05-04T23:07:05.325Z,2.10
2019-05-04T23:09:36.836Z,4.30
2019-05-04T23:12:06.029Z,2.93
2019-05-04T23:14:35.389Z,2.43
2019-05-04T23:17:06.428Z,3.17
2019-05-04T23:19:38.181Z,2.33
2019-05-04T23:22:09.020Z,2.77
2019-05-04T23:24:38.303Z,2.43
2019-05-04T23:27:07.584Z,3.23
2019-05-04T23:29:36.884Z,3.47
2019-05-04T23:32:06.340Z,2.90
2019-05-04T23:34:36.648Z,2.60
2019-05-04T23:37:06.097Z,2.83
2019-05-04T23:39:35.466Z,2.77
2019-05-04T23:42:04.743Z,2.30
2019-05-04T23:44:34.199Z,2.67
2019-05-04T23:47:15.151Z,3.10
2019-05-04T23:49:44.668Z,3.30
2019-05-04T23:52:13.948Z,3.07
2019-05-04T23:54:44.535Z,2.97
2019-05-04T23:57:14.383Z,4.00
2019-05-04T23:59:44.099Z,3.30
